sensor_id;sensor_type;location;lat;lon;timestamp;temperature;humidity
32348;DHT22;18821;44.800;10.326;2023-07-28T00:02:16;22.00;99.90
32348;DHT22;18821;44.800;10.326;2023-07-28T00:04:42;22.00;99.90
32348;DHT22;18821;44.800;10.326;2023-07-28T00:07:08;22.00;99.90
32348;DHT22;18821;44.800;10.326;2023-07-28T00:09:34;22.00;99.90
32348;DHT22;18821;44.800;10.326;2023-07-28T00:12:00;21.90;99.90
32348;DHT22;18821;44.800;10.326;2023-07-28T00:14:27;21.90;99.90
32348;DHT22;18821;44.800;10.326;2023-07-28T00:16:53;21.80;99.90
32348;DHT22;18821;44.800;10.326;2023-07-28T00:19:20;21.80;99.90
32348;DHT22;18821;44.800;10.326;2023-07-28T00:21:50;21.80;99.90
32348;DHT22;18821;44.800;10.326;2023-07-28T00:24:17;21.80;99.90
32348;DHT22;18821;44.800;10.326;2023-07-28T00:26:43;21.80;99.90
32348;DHT22;18821;44.800;10.326;2023-07-28T00:29:11;21.80;99.90
32348;DHT22;18821;44.800;10.326;2023-07-28T00:31:37;21.70;99.90
32348;DHT22;18821;44.800;10.326;2023-07-28T00:34:04;21.70;99.90
32348;DHT22;18821;44.800;10.326;2023-07-28T00:36:30;21.60;99.90
32348;DHT22;18821;44.800;10.326;2023-07-28T00:38:57;21.60;99.90
32348;DHT22;18821;44.800;10.326;2023-07-28T00:41:23;21.60;99.90
32348;DHT22;18821;44.800;10.326;2023-07-28T00:43:49;21.60;99.90
32348;DHT22;18821;44.800;10.326;2023-07-28T00:46:16;21.60;99.90
32348;DHT22;18821;44.800;10.326;2023-07-28T00:48:43;21.70;99.90
32348;DHT22;18821;44.800;10.326;2023-07-28T00:51:09;21.60;99.90
32348;DHT22;18821;44.800;10.326;2023-07-28T00:53:36;21.60;99.90
32348;DHT22;18821;44.800;10.326;2023-07-28T00:56:04;21.50;99.90
32348;DHT22;18821;44.800;10.326;2023-07-28T00:58:31;21.50;99.90
32348;DHT22;18821;44.800;10.326;2023-07-28T01:00:57;21.50;99.90
32348;DHT22;18821;44.800;10.326;2023-07-28T01:03:25;21.50;99.90
32348;DHT22;18821;44.800;10.326;2023-07-28T01:06:05;21.50;99.90
32348;DHT22;18821;44.800;10.326;2023-07-28T01:08:42;21.50;99.90
32348;DHT22;18821;44.800;10.326;2023-07-28T01:11:08;21.50;99.90
32348;DHT22;18821;44.800;10.326;2023-07-28T01:13:34;21.50;99.90
32348;DHT22;18821;44.800;10.326;2023-07-28T01:16:00;21.50;99.90
32348;DHT22;18821;44.800;10.326;2023-07-28T01:18:27;21.50;99.90
32348;DHT22;18821;44.800;10.326;2023-07-28T01:20:55;21.40;99.90
32348;DHT22;18821;44.800;10.326;2023-07-28T01:23:39;21.40;99.90
32348;DHT22;18821;44.800;10.326;2023-07-28T01:26:11;21.30;99.90
32348;DHT22;18821;44.800;10.326;2023-07-28T01:28:39;21.30;99.90
32348;DHT22;18821;44.800;10.326;2023-07-28T01:31:07;21.30;99.90
32348;DHT22;18821;44.800;10.326;2023-07-28T01:33:34;21.30;99.90
32348;DHT22;18821;44.800;10.326;2023-07-28T01:36:00;21.30;99.90
32348;DHT22;18821;44.800;10.326;2023-07-28T01:38:27;21.40;99.90
32348;DHT22;18821;44.800;10.326;2023-07-28T01:40:53;21.40;99.90
32348;DHT22;18821;44.800;10.326;2023-07-28T01:43:19;21.40;99.90
32348;DHT22;18821;44.800;10.326;2023-07-28T01:45:45;21.30;99.90
32348;DHT22;18821;44.800;10.326;2023-07-28T01:48:11;21.30;99.90
32348;DHT22;18821;44.800;10.326;2023-07-28T01:50:38;21.30;99.90
32348;DHT22;18821;44.800;10.326;2023-07-28T01:53:05;21.30;99.90
32348;DHT22;18821;44.800;10.326;2023-07-28T01:55:31;21.30;99.90
32348;DHT22;18821;44.800;10.326;2023-07-28T01:57:59;20.50;99.90
32348;DHT22;18821;44.800;10.326;2023-07-28T02:00:25;21.20;99.90
32348;DHT22;18821;44.800;10.326;2023-07-28T02:02:52;21.60;99.90
32348;DHT22;18821;44.800;10.326;2023-07-28T02:05:19;20.80;99.90
32348;DHT22;18821;44.800;10.326;2023-07-28T02:07:45;21.90;99.90
32348;DHT22;18821;44.800;10.326;2023-07-28T02:12:39;21.80;99.90
32348;DHT22;18821;44.800;10.326;2023-07-28T02:15:06;21.40;99.90
32348;DHT22;18821;44.800;10.326;2023-07-28T02:17:32;21.70;99.90
32348;DHT22;18821;44.800;10.326;2023-07-28T02:22:24;21.00;99.90
32348;DHT22;18821;44.800;10.326;2023-07-28T02:24:50;22.10;99.90
32348;DHT22;18821;44.800;10.326;2023-07-28T02:27:16;21.30;99.90
32348;DHT22;18821;44.800;10.326;2023-07-28T02:29:42;21.00;99.90
32348;DHT22;18821;44.800;10.326;2023-07-28T02:32:08;21.30;99.90
32348;DHT22;18821;44.800;10.326;2023-07-28T02:34:35;21.70;99.90
32348;DHT22;18821;44.800;10.326;2023-07-28T02:37:01;21.20;99.90
32348;DHT22;18821;44.800;10.326;2023-07-28T02:39:26;21.80;99.90
32348;DHT22;18821;44.800;10.326;2023-07-28T02:41:52;21.30;99.90
32348;DHT22;18821;44.800;10.326;2023-07-28T02:44:18;21.40;99.90
32348;DHT22;18821;44.800;10.326;2023-07-28T02:46:44;21.60;99.90
32348;DHT22;18821;44.800;10.326;2023-07-28T02:49:10;21.30;99.90
32348;DHT22;18821;44.800;10.326;2023-07-28T02:54:02;21.40;99.90
32348;DHT22;18821;44.800;10.326;2023-07-28T02:56:29;21.70;99.90
32348;DHT22;18821;44.800;10.326;2023-07-28T02:59:00;21.30;99.90
32348;DHT22;18821;44.800;10.326;2023-07-28T03:01:31;21.60;99.90
32348;DHT22;18821;44.800;10.326;2023-07-28T03:04:02;21.20;99.90
32348;DHT22;18821;44.800;10.326;2023-07-28T03:09:01;21.00;99.90
32348;DHT22;18821;44.800;10.326;2023-07-28T03:11:44;21.50;99.90
32348;DHT22;18821;44.800;10.326;2023-07-28T03:16:39;20.70;99.90
32348;DHT22;18821;44.800;10.326;2023-07-28T03:19:05;21.00;99.90
32348;DHT22;18821;44.800;10.326;2023-07-28T03:23:58;20.80;99.90
32348;DHT22;18821;44.800;10.326;2023-07-28T03:26:25;19.90;99.90
32348;DHT22;18821;44.800;10.326;2023-07-28T03:28:51;19.70;99.90
32348;DHT22;18821;44.800;10.326;2023-07-28T03:31:17;19.30;99.90
32348;DHT22;18821;44.800;10.326;2023-07-28T03:33:48;18.90;99.90
32348;DHT22;18821;44.800;10.326;2023-07-28T03:36:14;19.00;99.90
32348;DHT22;18821;44.800;10.326;2023-07-28T03:38:40;20.40;99.90
32348;DHT22;18821;44.800;10.326;2023-07-28T03:41:07;19.80;99.90
32348;DHT22;18821;44.800;10.326;2023-07-28T03:43:34;19.60;99.90
32348;DHT22;18821;44.800;10.326;2023-07-28T03:46:00;20.20;99.90
32348;DHT22;18821;44.800;10.326;2023-07-28T03:53:18;20.60;99.90
32348;DHT22;18821;44.800;10.326;2023-07-28T03:58:10;19.90;99.90
32348;DHT22;18821;44.800;10.326;2023-07-28T04:00:36;19.40;99.90
32348;DHT22;18821;44.800;10.326;2023-07-28T04:03:02;19.70;99.90
32348;DHT22;18821;44.800;10.326;2023-07-28T04:05:28;19.00;99.90
32348;DHT22;18821;44.800;10.326;2023-07-28T04:12:47;18.90;99.90
32348;DHT22;18821;44.800;10.326;2023-07-28T04:15:13;20.30;99.90
32348;DHT22;18821;44.800;10.326;2023-07-28T04:17:39;20.40;99.90
32348;DHT22;18821;44.800;10.326;2023-07-28T04:20:06;19.80;99.90
32348;DHT22;18821;44.800;10.326;2023-07-28T04:22:32;19.20;99.90
32348;DHT22;18821;44.800;10.326;2023-07-28T04:24:58;20.10;99.90
32348;DHT22;18821;44.800;10.326;2023-07-28T04:27:24;20.40;99.90
32348;DHT22;18821;44.800;10.326;2023-07-28T04:29:54;20.70;99.90
32348;DHT22;18821;44.800;10.326;2023-07-28T04:32:21;19.50;99.90
32348;DHT22;18821;44.800;10.326;2023-07-28T04:34:50;20.30;99.90
32348;DHT22;18821;44.800;10.326;2023-07-28T04:37:27;21.20;99.90
32348;DHT22;18821;44.800;10.326;2023-07-28T04:39:59;20.40;99.90
32348;DHT22;18821;44.800;10.326;2023-07-28T04:42:31;20.30;99.90
32348;DHT22;18821;44.800;10.326;2023-07-28T04:44:57;20.60;99.90
32348;DHT22;18821;44.800;10.326;2023-07-28T04:49:49;20.90;99.90
32348;DHT22;18821;44.800;10.326;2023-07-28T04:52:38;20.30;99.90
32348;DHT22;18821;44.800;10.326;2023-07-28T04:57:49;21.30;99.90
32348;DHT22;18821;44.800;10.326;2023-07-28T05:00:16;20.70;99.90
32348;DHT22;18821;44.800;10.326;2023-07-28T05:02:42;20.40;99.90
32348;DHT22;18821;44.800;10.326;2023-07-28T05:05:08;20.20;99.90
32348;DHT22;18821;44.800;10.326;2023-07-28T05:12:28;21.50;99.90
32348;DHT22;18821;44.800;10.326;2023-07-28T05:17:21;20.40;99.90
32348;DHT22;18821;44.800;10.326;2023-07-28T05:20:07;21.00;99.90
32348;DHT22;18821;44.800;10.326;2023-07-28T05:32:29;20.60;99.90
32348;DHT22;18821;44.800;10.326;2023-07-28T05:35:16;21.30;99.90
32348;DHT22;18821;44.800;10.326;2023-07-28T05:37:42;21.40;99.90
32348;DHT22;18821;44.800;10.326;2023-07-28T05:40:08;21.50;99.90
32348;DHT22;18821;44.800;10.326;2023-07-28T05:42:35;21.50;99.90
32348;DHT22;18821;44.800;10.326;2023-07-28T05:45:01;21.60;99.90
32348;DHT22;18821;44.800;10.326;2023-07-28T05:47:29;21.60;99.90
32348;DHT22;18821;44.800;10.326;2023-07-28T05:49:56;21.70;99.90
32348;DHT22;18821;44.800;10.326;2023-07-28T05:52:22;21.70;99.90
32348;DHT22;18821;44.800;10.326;2023-07-28T05:54:49;21.90;99.90
32348;DHT22;18821;44.800;10.326;2023-07-28T05:59:41;22.10;99.90
32348;DHT22;18821;44.800;10.326;2023-07-28T06:02:07;21.90;99.90
32348;DHT22;18821;44.800;10.326;2023-07-28T06:04:41;22.40;99.90
32348;DHT22;18821;44.800;10.326;2023-07-28T06:07:07;22.00;99.90
32348;DHT22;18821;44.800;10.326;2023-07-28T06:09:34;22.60;99.90
32348;DHT22;18821;44.800;10.326;2023-07-28T06:14:27;22.50;99.90
32348;DHT22;18821;44.800;10.326;2023-07-28T06:16:56;22.60;99.90
32348;DHT22;18821;44.800;10.326;2023-07-28T06:19:25;22.70;99.90
32348;DHT22;18821;44.800;10.326;2023-07-28T06:21:52;22.80;99.90
32348;DHT22;18821;44.800;10.326;2023-07-28T06:24:18;22.80;99.90
32348;DHT22;18821;44.800;10.326;2023-07-28T06:26:44;22.70;99.90
32348;DHT22;18821;44.800;10.326;2023-07-28T06:29:10;22.80;99.90
32348;DHT22;18821;44.800;10.326;2023-07-28T06:31:36;22.80;99.90
32348;DHT22;18821;44.800;10.326;2023-07-28T06:34:03;23.00;99.90
32348;DHT22;18821;44.800;10.326;2023-07-28T06:36:29;23.20;99.90
32348;DHT22;18821;44.800;10.326;2023-07-28T06:38:55;23.30;99.90
32348;DHT22;18821;44.800;10.326;2023-07-28T06:41:22;23.50;99.90
32348;DHT22;18821;44.800;10.326;2023-07-28T06:46:20;23.30;99.90
32348;DHT22;18821;44.800;10.326;2023-07-28T06:48:46;22.90;99.90
32348;DHT22;18821;44.800;10.326;2023-07-28T06:56:08;23.30;99.90
32348;DHT22;18821;44.800;10.326;2023-07-28T06:58:34;23.50;99.90
32348;DHT22;18821;44.800;10.326;2023-07-28T07:03:26;23.30;99.90
32348;DHT22;18821;44.800;10.326;2023-07-28T07:08:18;23.00;99.90
32348;DHT22;18821;44.800;10.326;2023-07-28T07:10:51;23.50;99.90
32348;DHT22;18821;44.800;10.326;2023-07-28T07:15:44;23.50;99.90
32348;DHT22;18821;44.800;10.326;2023-07-28T07:18:10;23.60;99.90
32348;DHT22;18821;44.800;10.326;2023-07-28T07:20:36;22.40;99.90
32348;DHT22;18821;44.800;10.326;2023-07-28T07:23:03;23.40;99.90
32348;DHT22;18821;44.800;10.326;2023-07-28T07:25:29;22.90;99.90
32348;DHT22;18821;44.800;10.326;2023-07-28T07:27:54;23.70;99.90
32348;DHT22;18821;44.800;10.326;2023-07-28T07:30:21;23.00;99.90
32348;DHT22;18821;44.800;10.326;2023-07-28T07:32:47;24.10;99.90
32348;DHT22;18821;44.800;10.326;2023-07-28T07:35:13;24.10;99.90
32348;DHT22;18821;44.800;10.326;2023-07-28T07:37:39;24.20;99.90
32348;DHT22;18821;44.800;10.326;2023-07-28T07:40:06;24.00;99.90
32348;DHT22;18821;44.800;10.326;2023-07-28T07:45:10;24.10;99.90
32348;DHT22;18821;44.800;10.326;2023-07-28T07:50:02;24.10;99.90
32348;DHT22;18821;44.800;10.326;2023-07-28T07:52:28;24.50;99.90
32348;DHT22;18821;44.800;10.326;2023-07-28T08:04:40;25.60;99.90
32348;DHT22;18821;44.800;10.326;2023-07-28T08:09:32;25.10;99.90
32348;DHT22;18821;44.800;10.326;2023-07-28T08:12:00;24.90;99.90
32348;DHT22;18821;44.800;10.326;2023-07-28T08:16:52;24.70;99.90
32348;DHT22;18821;44.800;10.326;2023-07-28T08:24:11;26.60;99.90
32348;DHT22;18821;44.800;10.326;2023-07-28T08:26:37;25.40;99.90
32348;DHT22;18821;44.800;10.326;2023-07-28T08:33:56;25.30;99.90
32348;DHT22;18821;44.800;10.326;2023-07-28T08:36:22;25.20;99.90
32348;DHT22;18821;44.800;10.326;2023-07-28T08:41:14;26.00;99.90
32348;DHT22;18821;44.800;10.326;2023-07-28T08:43:41;25.50;99.90
32348;DHT22;18821;44.800;10.326;2023-07-28T08:48:35;26.40;99.90
32348;DHT22;18821;44.800;10.326;2023-07-28T08:51:02;26.20;99.90
32348;DHT22;18821;44.800;10.326;2023-07-28T08:53:30;26.60;99.90
32348;DHT22;18821;44.800;10.326;2023-07-28T09:00:52;26.00;99.90
32348;DHT22;18821;44.800;10.326;2023-07-28T09:03:19;26.30;99.90
32348;DHT22;18821;44.800;10.326;2023-07-28T09:05:46;25.90;99.90
32348;DHT22;18821;44.800;10.326;2023-07-28T09:08:13;27.00;99.90
32348;DHT22;18821;44.800;10.326;2023-07-28T09:10:46;26.80;99.90
32348;DHT22;18821;44.800;10.326;2023-07-28T09:13:16;27.30;99.90
32348;DHT22;18821;44.800;10.326;2023-07-28T09:15:42;27.00;99.90
32348;DHT22;18821;44.800;10.326;2023-07-28T09:18:09;27.70;99.90
32348;DHT22;18821;44.800;10.326;2023-07-28T09:20:37;27.00;99.90
32348;DHT22;18821;44.800;10.326;2023-07-28T09:23:04;26.90;99.90
32348;DHT22;18821;44.800;10.326;2023-07-28T09:25:31;27.00;99.90
32348;DHT22;18821;44.800;10.326;2023-07-28T09:27:59;27.20;99.90
32348;DHT22;18821;44.800;10.326;2023-07-28T09:30:25;27.50;99.90
32348;DHT22;18821;44.800;10.326;2023-07-28T09:32:55;27.40;99.90
32348;DHT22;18821;44.800;10.326;2023-07-28T09:35:22;28.70;99.90
32348;DHT22;18821;44.800;10.326;2023-07-28T09:37:50;28.40;99.90
32348;DHT22;18821;44.800;10.326;2023-07-28T09:40:25;28.00;99.90
32348;DHT22;18821;44.800;10.326;2023-07-28T09:42:52;28.20;99.90
32348;DHT22;18821;44.800;10.326;2023-07-28T09:45:20;28.00;99.90
32348;DHT22;18821;44.800;10.326;2023-07-28T09:47:50;28.80;99.90
32348;DHT22;18821;44.800;10.326;2023-07-28T09:50:23;28.70;99.90
32348;DHT22;18821;44.800;10.326;2023-07-28T09:52:53;28.40;99.90
32348;DHT22;18821;44.800;10.326;2023-07-28T09:55:20;28.30;99.90
32348;DHT22;18821;44.800;10.326;2023-07-28T09:57:51;28.20;99.90
32348;DHT22;18821;44.800;10.326;2023-07-28T10:02:45;28.50;99.90
32348;DHT22;18821;44.800;10.326;2023-07-28T10:05:11;27.70;99.90
32348;DHT22;18821;44.800;10.326;2023-07-28T10:07:43;27.40;99.90
32348;DHT22;18821;44.800;10.326;2023-07-28T10:10:12;27.60;99.90
32348;DHT22;18821;44.800;10.326;2023-07-28T10:12:42;28.10;99.90
32348;DHT22;18821;44.800;10.326;2023-07-28T10:15:18;29.00;99.90
32348;DHT22;18821;44.800;10.326;2023-07-28T10:17:54;28.40;99.90
32348;DHT22;18821;44.800;10.326;2023-07-28T10:23:17;28.20;99.90
32348;DHT22;18821;44.800;10.326;2023-07-28T10:25:44;28.50;99.90
32348;DHT22;18821;44.800;10.326;2023-07-28T10:30:54;28.80;99.90
32348;DHT22;18821;44.800;10.326;2023-07-28T10:33:34;29.20;99.90
32348;DHT22;18821;44.800;10.326;2023-07-28T10:38:39;28.90;99.90
32348;DHT22;18821;44.800;10.326;2023-07-28T10:41:11;28.00;99.90
32348;DHT22;18821;44.800;10.326;2023-07-28T10:43:38;28.20;99.90
32348;DHT22;18821;44.800;10.326;2023-07-28T10:46:09;29.30;99.90
32348;DHT22;18821;44.800;10.326;2023-07-28T10:48:37;29.40;99.90
32348;DHT22;18821;44.800;10.326;2023-07-28T10:53:31;29.00;99.90
32348;DHT22;18821;44.800;10.326;2023-07-28T10:55:58;28.70;99.90
32348;DHT22;18821;44.800;10.326;2023-07-28T11:00:51;28.20;99.90
32348;DHT22;18821;44.800;10.326;2023-07-28T11:03:21;29.10;99.90
32348;DHT22;18821;44.800;10.326;2023-07-28T11:05:49;28.90;99.90
32348;DHT22;18821;44.800;10.326;2023-07-28T11:10:42;28.00;99.90
32348;DHT22;18821;44.800;10.326;2023-07-28T11:15:35;28.40;99.90
32348;DHT22;18821;44.800;10.326;2023-07-28T11:18:03;28.30;99.90
32348;DHT22;18821;44.800;10.326;2023-07-28T11:20:30;28.60;99.90
32348;DHT22;18821;44.800;10.326;2023-07-28T11:23:04;29.10;99.90
32348;DHT22;18821;44.800;10.326;2023-07-28T11:25:31;28.40;99.90
32348;DHT22;18821;44.800;10.326;2023-07-28T11:28:01;28.70;99.90
32348;DHT22;18821;44.800;10.326;2023-07-28T11:30:27;28.00;99.90
32348;DHT22;18821;44.800;10.326;2023-07-28T11:32:53;28.10;99.90
32348;DHT22;18821;44.800;10.326;2023-07-28T11:35:20;28.40;99.90
32348;DHT22;18821;44.800;10.326;2023-07-28T11:37:49;29.00;99.90
32348;DHT22;18821;44.800;10.326;2023-07-28T11:40:21;28.60;99.90
32348;DHT22;18821;44.800;10.326;2023-07-28T11:42:50;29.00;99.90
32348;DHT22;18821;44.800;10.326;2023-07-28T11:45:18;28.90;99.90
32348;DHT22;18821;44.800;10.326;2023-07-28T11:48:04;28.80;99.90
32348;DHT22;18821;44.800;10.326;2023-07-28T11:50:38;29.10;99.90
32348;DHT22;18821;44.800;10.326;2023-07-28T11:55:33;29.60;99.90
32348;DHT22;18821;44.800;10.326;2023-07-28T11:58:01;28.80;99.90
32348;DHT22;18821;44.800;10.326;2023-07-28T12:00:37;29.70;99.90
32348;DHT22;18821;44.800;10.326;2023-07-28T12:03:07;29.50;99.90
32348;DHT22;18821;44.800;10.326;2023-07-28T12:05:41;30.20;99.90
32348;DHT22;18821;44.800;10.326;2023-07-28T12:10:34;30.30;99.90
32348;DHT22;18821;44.800;10.326;2023-07-28T12:13:05;29.30;99.90
32348;DHT22;18821;44.800;10.326;2023-07-28T12:15:33;29.30;99.90
32348;DHT22;18821;44.800;10.326;2023-07-28T12:18:06;28.90;99.90
32348;DHT22;18821;44.800;10.326;2023-07-28T12:20:42;29.20;99.90
32348;DHT22;18821;44.800;10.326;2023-07-28T12:23:13;29.70;99.90
32348;DHT22;18821;44.800;10.326;2023-07-28T12:30:34;29.80;99.90
32348;DHT22;18821;44.800;10.326;2023-07-28T12:35:27;29.80;99.90
32348;DHT22;18821;44.800;10.326;2023-07-28T12:38:04;29.50;99.90
32348;DHT22;18821;44.800;10.326;2023-07-28T12:40:32;29.90;99.90
32348;DHT22;18821;44.800;10.326;2023-07-28T12:42:59;29.90;99.90
32348;DHT22;18821;44.800;10.326;2023-07-28T12:47:52;30.00;99.90
32348;DHT22;18821;44.800;10.326;2023-07-28T12:50:22;30.00;99.90
32348;DHT22;18821;44.800;10.326;2023-07-28T12:55:16;30.40;99.90
32348;DHT22;18821;44.800;10.326;2023-07-28T12:57:43;30.70;99.90
32348;DHT22;18821;44.800;10.326;2023-07-28T13:00:10;30.90;99.90
32348;DHT22;18821;44.800;10.326;2023-07-28T13:02:43;31.30;99.90
32348;DHT22;18821;44.800;10.326;2023-07-28T13:05:10;31.30;99.90
32348;DHT22;18821;44.800;10.326;2023-07-28T13:07:40;31.40;99.90
32348;DHT22;18821;44.800;10.326;2023-07-28T13:10:08;31.40;99.90
32348;DHT22;18821;44.800;10.326;2023-07-28T13:15:03;31.70;99.90
32348;DHT22;18821;44.800;10.326;2023-07-28T13:17:29;31.90;99.90
32348;DHT22;18821;44.800;10.326;2023-07-28T13:27:15;32.20;99.90
32348;DHT22;18821;44.800;10.326;2023-07-28T13:32:22;32.00;99.90
32348;DHT22;18821;44.800;10.326;2023-07-28T13:37:14;31.40;99.90
32348;DHT22;18821;44.800;10.326;2023-07-28T13:39:41;31.50;99.90
32348;DHT22;18821;44.800;10.326;2023-07-28T13:42:08;31.90;99.90
32348;DHT22;18821;44.800;10.326;2023-07-28T13:44:34;32.20;99.90
32348;DHT22;18821;44.800;10.326;2023-07-28T13:49:27;32.40;99.90
32348;DHT22;18821;44.800;10.326;2023-07-28T14:18:42;32.00;99.90
32348;DHT22;18821;44.800;10.326;2023-07-28T14:21:08;32.20;99.90
32348;DHT22;18821;44.800;10.326;2023-07-28T14:30:52;32.10;99.90
32348;DHT22;18821;44.800;10.326;2023-07-28T14:35:47;31.50;99.90
32348;DHT22;18821;44.800;10.326;2023-07-28T14:38:13;31.90;99.90
32348;DHT22;18821;44.800;10.326;2023-07-28T14:40:39;32.50;99.90
32348;DHT22;18821;44.800;10.326;2023-07-28T14:43:06;32.20;99.90
32348;DHT22;18821;44.800;10.326;2023-07-28T14:45:32;31.80;99.90
32348;DHT22;18821;44.800;10.326;2023-07-28T14:47:58;31.90;99.90
32348;DHT22;18821;44.800;10.326;2023-07-28T14:50:26;32.20;99.90
32348;DHT22;18821;44.800;10.326;2023-07-28T14:55:19;32.50;99.90
32348;DHT22;18821;44.800;10.326;2023-07-28T15:00:11;31.80;99.90
32348;DHT22;18821;44.800;10.326;2023-07-28T15:05:04;32.00;99.90
32348;DHT22;18821;44.800;10.326;2023-07-28T15:07:33;31.90;99.90
32348;DHT22;18821;44.800;10.326;2023-07-28T15:14:55;31.90;99.90
32348;DHT22;18821;44.800;10.326;2023-07-28T15:17:21;31.90;99.90
32348;DHT22;18821;44.800;10.326;2023-07-28T15:24:39;32.10;99.90
32348;DHT22;18821;44.800;10.326;2023-07-28T15:31:59;32.20;99.90
32348;DHT22;18821;44.800;10.326;2023-07-28T15:36:51;32.10;99.90
32348;DHT22;18821;44.800;10.326;2023-07-28T15:53:55;30.90;99.90
32348;DHT22;18821;44.800;10.326;2023-07-28T15:56:21;30.70;99.90
32348;DHT22;18821;44.800;10.326;2023-07-28T15:58:47;30.50;99.90
32348;DHT22;18821;44.800;10.326;2023-07-28T16:03:40;30.20;99.90
32348;DHT22;18821;44.800;10.326;2023-07-28T16:10:58;29.70;99.90
32348;DHT22;18821;44.800;10.326;2023-07-28T16:13:24;29.20;99.90
32348;DHT22;18821;44.800;10.326;2023-07-28T16:15:51;29.50;99.90
32348;DHT22;18821;44.800;10.326;2023-07-28T16:18:17;29.60;99.90
32348;DHT22;18821;44.800;10.326;2023-07-28T16:20:43;30.00;99.90
32348;DHT22;18821;44.800;10.326;2023-07-28T16:23:09;29.00;99.90
32348;DHT22;18821;44.800;10.326;2023-07-28T16:35:20;29.20;99.90
32348;DHT22;18821;44.800;10.326;2023-07-28T16:40:12;29.60;99.90
32348;DHT22;18821;44.800;10.326;2023-07-28T16:50:02;29.30;99.90
32348;DHT22;18821;44.800;10.326;2023-07-28T16:52:28;29.50;99.90
32348;DHT22;18821;44.800;10.326;2023-07-28T17:07:06;30.90;99.90
32348;DHT22;18821;44.800;10.326;2023-07-28T17:11:58;29.60;99.90
32348;DHT22;18821;44.800;10.326;2023-07-28T17:14:24;29.80;99.90
32348;DHT22;18821;44.800;10.326;2023-07-28T17:16:50;29.40;99.90
32348;DHT22;18821;44.800;10.326;2023-07-28T17:19:17;29.40;99.90
32348;DHT22;18821;44.800;10.326;2023-07-28T17:21:44;29.70;99.90
32348;DHT22;18821;44.800;10.326;2023-07-28T17:24:10;29.70;99.90
32348;DHT22;18821;44.800;10.326;2023-07-28T17:29:03;29.70;99.90
32348;DHT22;18821;44.800;10.326;2023-07-28T17:31:28;29.40;99.90
32348;DHT22;18821;44.800;10.326;2023-07-28T17:33:54;29.40;99.90
32348;DHT22;18821;44.800;10.326;2023-07-28T17:36:20;29.60;99.90
32348;DHT22;18821;44.800;10.326;2023-07-28T17:38:46;29.20;99.90
32348;DHT22;18821;44.800;10.326;2023-07-28T17:46:11;28.90;99.90
32348;DHT22;18821;44.800;10.326;2023-07-28T17:48:37;28.40;99.90
32348;DHT22;18821;44.800;10.326;2023-07-28T17:51:03;28.30;99.90
32348;DHT22;18821;44.800;10.326;2023-07-28T17:53:29;28.20;99.90
32348;DHT22;18821;44.800;10.326;2023-07-28T17:55:57;28.50;99.90
32348;DHT22;18821;44.800;10.326;2023-07-28T18:00:50;28.50;99.90
32348;DHT22;18821;44.800;10.326;2023-07-28T18:03:16;28.10;99.90
32348;DHT22;18821;44.800;10.326;2023-07-28T18:08:08;27.80;99.90
32348;DHT22;18821;44.800;10.326;2023-07-28T18:10:38;28.10;99.90
32348;DHT22;18821;44.800;10.326;2023-07-28T18:13:04;28.20;99.90
32348;DHT22;18821;44.800;10.326;2023-07-28T18:15:30;27.50;99.90
32348;DHT22;18821;44.800;10.326;2023-07-28T18:17:56;28.00;99.90
32348;DHT22;18821;44.800;10.326;2023-07-28T18:20:22;27.50;99.90
32348;DHT22;18821;44.800;10.326;2023-07-28T18:25:15;27.90;99.90
32348;DHT22;18821;44.800;10.326;2023-07-28T18:27:41;26.80;99.90
32348;DHT22;18821;44.800;10.326;2023-07-28T18:30:07;27.80;99.90
32348;DHT22;18821;44.800;10.326;2023-07-28T18:32:34;27.50;99.90
32348;DHT22;18821;44.800;10.326;2023-07-28T18:35:00;27.50;99.90
32348;DHT22;18821;44.800;10.326;2023-07-28T18:37:26;27.40;99.90
32348;DHT22;18821;44.800;10.326;2023-07-28T18:39:52;27.40;99.90
32348;DHT22;18821;44.800;10.326;2023-07-28T18:42:18;27.50;99.90
32348;DHT22;18821;44.800;10.326;2023-07-28T18:47:12;27.40;99.90
32348;DHT22;18821;44.800;10.326;2023-07-28T18:49:38;26.90;99.90
32348;DHT22;18821;44.800;10.326;2023-07-28T18:52:04;27.40;99.90
32348;DHT22;18821;44.800;10.326;2023-07-28T18:54:30;27.10;99.90
32348;DHT22;18821;44.800;10.326;2023-07-28T18:56:56;27.10;99.90
32348;DHT22;18821;44.800;10.326;2023-07-28T18:59:22;27.00;99.90
32348;DHT22;18821;44.800;10.326;2023-07-28T19:01:48;27.00;99.90
32348;DHT22;18821;44.800;10.326;2023-07-28T19:04:14;26.90;99.90
32348;DHT22;18821;44.800;10.326;2023-07-28T19:06:40;26.90;99.90
32348;DHT22;18821;44.800;10.326;2023-07-28T19:09:06;26.80;99.90
32348;DHT22;18821;44.800;10.326;2023-07-28T19:11:32;26.60;99.90
32348;DHT22;18821;44.800;10.326;2023-07-28T19:18:51;26.60;99.90
32348;DHT22;18821;44.800;10.326;2023-07-28T19:21:18;26.10;99.90
32348;DHT22;18821;44.800;10.326;2023-07-28T19:26:12;26.60;99.90
32348;DHT22;18821;44.800;10.326;2023-07-28T19:31:04;26.00;99.90
32348;DHT22;18821;44.800;10.326;2023-07-28T19:33:34;26.60;99.90
32348;DHT22;18821;44.800;10.326;2023-07-28T19:36:00;26.20;99.90
32348;DHT22;18821;44.800;10.326;2023-07-28T19:38:27;26.40;99.90
32348;DHT22;18821;44.800;10.326;2023-07-28T19:40:53;26.40;99.90
32348;DHT22;18821;44.800;10.326;2023-07-28T19:43:19;26.10;99.90
32348;DHT22;18821;44.800;10.326;2023-07-28T19:45:45;26.20;99.90
32348;DHT22;18821;44.800;10.326;2023-07-28T19:48:12;25.80;99.90
32348;DHT22;18821;44.800;10.326;2023-07-28T19:50:38;25.70;99.90
32348;DHT22;18821;44.800;10.326;2023-07-28T19:53:05;26.20;99.90
32348;DHT22;18821;44.800;10.326;2023-07-28T19:55:31;26.40;99.90
32348;DHT22;18821;44.800;10.326;2023-07-28T19:58:01;26.20;99.90
32348;DHT22;18821;44.800;10.326;2023-07-28T20:00:27;26.10;99.90
32348;DHT22;18821;44.800;10.326;2023-07-28T20:02:53;25.60;99.90
32348;DHT22;18821;44.800;10.326;2023-07-28T20:05:19;26.00;99.90
32348;DHT22;18821;44.800;10.326;2023-07-28T20:07:47;26.40;99.90
32348;DHT22;18821;44.800;10.326;2023-07-28T20:12:40;25.60;99.90
32348;DHT22;18821;44.800;10.326;2023-07-28T20:15:06;26.00;99.90
32348;DHT22;18821;44.800;10.326;2023-07-28T20:17:32;25.20;99.90
32348;DHT22;18821;44.800;10.326;2023-07-28T20:19:58;25.20;99.90
32348;DHT22;18821;44.800;10.326;2023-07-28T20:22:24;25.80;99.90
32348;DHT22;18821;44.800;10.326;2023-07-28T20:24:50;26.30;99.90
32348;DHT22;18821;44.800;10.326;2023-07-28T20:27:16;25.60;99.90